createdAt,value
2019-03-22T00:00:32.976Z,61.07
2019-03-22T00:03:13.768Z,59.60
2019-03-22T00:05:54.516Z,60.77
2019-03-22T00:08:35.044Z,58.77
2019-03-22T00:11:16.040Z,61.13
2019-03-22T00:13:57.075Z,61.70
2019-03-22T00:16:37.792Z,58.83
2019-03-22T00:19:18.244Z,61.30
2019-03-22T00:21:58.888Z,61.90
2019-03-22T00:24:39.589Z,59.50
2019-03-22T00:27:20.162Z,60.97
2019-03-22T00:30:00.917Z,59.50
2019-03-22T00:32:41.553Z,59.23
2019-03-22T00:35:22.238Z,60.90
2019-03-22T00:38:02.831Z,58.90
2019-03-22T00:40:43.441Z,59.60
2019-03-22T00:43:24.164Z,61.60
2019-03-22T00:46:04.817Z,62.50
2019-03-22T00:48:45.500Z,63.40
2019-03-22T00:51:26.045Z,61.60
2019-03-22T00:54:06.663Z,62.50
2019-03-22T00:56:49.811Z,60.90
2019-03-22T00:59:31.068Z,59.87
2019-03-22T01:02:11.737Z,60.03
2019-03-22T01:04:52.456Z,61.30
2019-03-22T01:07:33.201Z,59.77
2019-03-22T01:10:13.945Z,60.80
2019-03-22T01:12:54.887Z,61.43
2019-03-22T01:15:35.627Z,62.80
2019-03-22T01:18:16.341Z,61.13
2019-03-22T01:20:57.130Z,62.23
2019-03-22T01:23:38.013Z,59.43
2019-03-22T01:26:18.787Z,60.17
2019-03-22T01:28:59.473Z,58.37
2019-03-22T01:31:40.070Z,58.60
2019-03-22T01:34:20.647Z,62.20
2019-03-22T01:37:01.299Z,62.40
2019-03-22T01:39:41.896Z,61.60
2019-03-22T01:42:22.820Z,61.40
2019-03-22T01:45:03.389Z,62.33
2019-03-22T01:47:44.137Z,60.83
2019-03-22T01:50:24.905Z,59.47
2019-03-22T01:53:05.664Z,58.90
2019-03-22T01:55:46.387Z,57.70
2019-03-22T01:58:26.976Z,57.67
2019-03-22T02:01:07.916Z,57.20
2019-03-22T02:03:48.670Z,60.43
2019-03-22T02:06:29.540Z,56.30
2019-03-22T02:09:10.336Z,56.50
2019-03-22T02:11:50.897Z,60.40
2019-03-22T02:14:31.656Z,58.93
2019-03-22T02:17:12.740Z,63.17
2019-03-22T02:19:53.444Z,61.47
2019-03-22T02:22:34.122Z,63.50
2019-03-22T02:25:14.819Z,64.33
2019-03-22T02:28:03.667Z,62.47
2019-03-22T02:30:38.180Z,63.33
2019-03-22T02:33:18.974Z,62.37
2019-03-22T02:35:59.583Z,64.53
2019-03-22T02:38:40.142Z,63.13
2019-03-22T02:41:20.833Z,63.47
2019-03-22T02:44:01.606Z,65.67
2019-03-22T02:46:42.805Z,67.90
2019-03-22T02:49:23.207Z,67.13
2019-03-22T02:52:03.729Z,66.97
2019-03-22T02:54:44.424Z,71.27
2019-03-22T02:57:24.861Z,66.23
2019-03-22T03:00:05.803Z,66.73
2019-03-22T03:02:46.409Z,68.03
2019-03-22T03:05:27.657Z,70.60
2019-03-22T03:07:56.931Z,70.40
2019-03-22T03:10:26.176Z,68.57
2019-03-22T03:12:55.395Z,73.10
2019-03-22T03:15:24.604Z,70.30
2019-03-22T03:17:53.890Z,71.60
2019-03-22T03:20:23.198Z,70.20
2019-03-22T03:22:52.437Z,69.77
2019-03-22T03:25:21.635Z,68.37
2019-03-22T03:27:50.903Z,70.43
2019-03-22T03:30:20.527Z,69.30
2019-03-22T03:32:49.826Z,66.37
2019-03-22T03:35:19.586Z,68.80
2019-03-22T03:37:49.704Z,63.20
2019-03-22T03:40:19.301Z,65.37
2019-03-22T03:42:48.575Z,65.47
2019-03-22T03:45:30.645Z,66.60
2019-03-22T03:48:00.206Z,62.60
2019-03-22T03:50:29.548Z,58.80
2019-03-22T03:52:58.771Z,59.00
2019-03-22T03:55:28.283Z,55.73
2019-03-22T03:57:57.564Z,53.40
2019-03-22T04:00:26.987Z,52.27
2019-03-22T04:02:56.523Z,54.93
2019-03-22T04:05:25.769Z,55.93
2019-03-22T04:07:55.020Z,52.90
2019-03-22T04:10:24.226Z,53.10
2019-03-22T04:12:53.413Z,54.63
2019-03-22T04:15:22.660Z,55.40
2019-03-22T04:17:51.876Z,53.33
2019-03-22T04:20:21.067Z,51.23
2019-03-22T04:22:50.271Z,49.40
2019-03-22T04:25:19.446Z,48.70
2019-03-22T04:27:48.669Z,51.00
2019-03-22T04:30:17.821Z,52.30
2019-03-22T04:32:47.029Z,51.23
2019-03-22T04:35:16.272Z,49.83
2019-03-22T04:37:45.479Z,49.50
2019-03-22T04:40:25.387Z,50.90
2019-03-22T04:42:54.890Z,50.07
2019-03-22T04:45:26.056Z,47.43
2019-03-22T04:48:01.496Z,51.07
2019-03-22T04:50:33.042Z,48.30
2019-03-22T04:53:03.441Z,47.80
2019-03-22T04:55:34.409Z,45.53
2019-03-22T04:58:05.021Z,48.23
2019-03-22T05:00:35.579Z,49.73
2019-03-22T05:03:06.301Z,49.33
2019-03-22T05:05:35.840Z,49.93
2019-03-22T05:08:06.055Z,49.70
2019-03-22T05:10:36.568Z,50.10
2019-03-22T05:13:09.199Z,50.53
2019-03-22T05:15:39.320Z,51.53
2019-03-22T05:18:09.345Z,48.57
2019-03-22T05:20:40.441Z,49.67
2019-03-22T05:23:11.279Z,53.27
2019-03-22T05:25:41.588Z,54.30
2019-03-22T05:28:12.745Z,54.90
2019-03-22T05:31:28.451Z,54.97
2019-03-22T05:33:57.641Z,55.53
2019-03-22T05:36:26.836Z,58.47
2019-03-22T05:38:56.028Z,58.30
2019-03-22T05:41:25.225Z,55.73
2019-03-22T05:43:54.808Z,57.00
2019-03-22T05:46:23.984Z,56.50
2019-03-22T05:48:53.189Z,56.60
2019-03-22T05:51:22.380Z,55.17
2019-03-22T05:53:51.585Z,56.47
2019-03-22T05:56:21.073Z,56.50
2019-03-22T05:58:50.292Z,56.40
2019-03-22T06:01:19.529Z,54.87
2019-03-22T06:03:48.790Z,57.27
2019-03-22T06:06:18.321Z,55.53
2019-03-22T06:08:47.525Z,55.87
2019-03-22T06:11:16.725Z,59.90
2019-03-22T06:13:45.916Z,56.60
2019-03-22T06:16:15.166Z,58.63
2019-03-22T06:18:44.676Z,59.30
2019-03-22T06:21:13.947Z,60.37
2019-03-22T06:23:43.161Z,60.33
2019-03-22T06:26:12.335Z,59.23
2019-03-22T06:28:41.521Z,57.47
2019-03-22T06:31:10.703Z,59.63
2019-03-22T06:33:39.899Z,59.40
2019-03-22T06:36:09.147Z,59.17
2019-03-22T06:38:38.400Z,59.10
2019-03-22T06:41:07.652Z,59.60
2019-03-22T06:43:36.904Z,57.17
2019-03-22T06:46:06.136Z,59.00
2019-03-22T06:48:35.324Z,57.50
2019-03-22T06:51:04.556Z,57.00
2019-03-22T06:53:34.031Z,57.40
2019-03-22T06:56:03.203Z,59.30
2019-03-22T06:58:32.491Z,57.63
2019-03-22T07:01:01.732Z,59.83
2019-03-22T07:03:30.942Z,59.67
2019-03-22T07:06:00.434Z,58.77
2019-03-22T07:08:29.633Z,57.00
2019-03-22T07:10:58.808Z,56.53
2019-03-22T07:13:28.004Z,54.97
2019-03-22T07:15:57.224Z,54.83
2019-03-22T07:18:26.431Z,55.30
2019-03-22T07:20:55.605Z,54.03
2019-03-22T07:23:24.823Z,55.43
2019-03-22T07:25:53.988Z,52.13
2019-03-22T07:28:23.189Z,53.20
2019-03-22T07:30:52.455Z,52.60
2019-03-22T07:33:21.663Z,49.77
2019-03-22T07:35:50.861Z,47.47
2019-03-22T07:38:20.075Z,50.70
2019-03-22T07:40:49.278Z,50.90
2019-03-22T07:43:18.490Z,50.63
2019-03-22T07:45:47.702Z,49.80
2019-03-22T07:48:16.879Z,53.07
2019-03-22T07:50:46.056Z,59.00
2019-03-22T07:53:15.269Z,57.23
2019-03-22T07:55:44.465Z,59.90
2019-03-22T07:58:13.980Z,58.47
2019-03-22T08:00:43.620Z,57.90
2019-03-22T08:03:12.838Z,63.80
2019-03-22T08:05:50.763Z,62.43
2019-03-22T08:08:12.973Z,59.00
2019-03-22T08:10:42.197Z,57.30
2019-03-22T08:13:11.432Z,60.07
2019-03-22T08:15:40.786Z,58.33
2019-03-22T08:18:10.023Z,59.50
2019-03-22T08:20:39.297Z,58.50
2019-03-22T08:23:19.089Z,57.77
2019-03-22T08:25:48.401Z,56.00
2019-03-22T08:28:17.849Z,56.00
2019-03-22T08:30:47.132Z,55.13
2019-03-22T08:33:16.896Z,55.10
2019-03-22T08:35:46.227Z,54.40
2019-03-22T08:38:17.530Z,54.03
2019-03-22T08:40:46.390Z,52.97
2019-03-22T08:43:15.609Z,52.23
2019-03-22T08:45:44.930Z,50.80
2019-03-22T08:48:14.267Z,49.70
2019-03-22T08:50:43.655Z,47.63
2019-03-22T08:53:12.837Z,51.57
2019-03-22T08:55:42.053Z,53.43
2019-03-22T08:58:18.483Z,51.93
2019-03-22T09:00:57.517Z,49.87
2019-03-22T09:03:18.198Z,49.13
2019-03-22T09:05:47.368Z,49.93
2019-03-22T09:08:16.631Z,48.47
2019-03-22T09:10:45.927Z,49.40
2019-03-22T09:13:15.686Z,48.07
2019-03-22T09:15:44.938Z,48.00
2019-03-22T09:18:15.507Z,48.30
2019-03-22T09:21:04.067Z,47.73
2019-03-22T09:23:52.238Z,44.53
2019-03-22T09:26:47.655Z,45.80
2019-03-22T09:29:30.444Z,42.87
2019-03-22T09:32:18.706Z,45.27
2019-03-22T09:35:07.076Z,43.53
2019-03-22T09:37:55.584Z,44.60
2019-03-22T09:40:44.053Z,45.40
2019-03-22T09:43:32.252Z,44.67
2019-03-22T09:46:20.495Z,43.17
2019-03-22T09:49:08.701Z,43.47
2019-03-22T09:51:56.920Z,44.63
2019-03-22T09:54:45.192Z,45.57
2019-03-22T09:57:33.595Z,42.23
2019-03-22T10:00:40.789Z,45.23
2019-03-22T10:03:21.874Z,43.43
2019-03-22T10:06:02.742Z,45.07
2019-03-22T10:08:43.458Z,44.47
2019-03-22T10:11:24.208Z,45.40
2019-03-22T10:14:04.958Z,44.03
2019-03-22T10:16:47.605Z,45.47
2019-03-22T10:19:28.364Z,44.17
2019-03-22T10:22:09.382Z,43.30
2019-03-22T10:24:50.036Z,42.97
2019-03-22T10:27:30.799Z,46.57
2019-03-22T10:30:11.492Z,44.60
2019-03-22T10:32:52.301Z,45.13
2019-03-22T10:35:32.916Z,44.00
2019-03-22T10:38:16.385Z,44.80
2019-03-22T10:40:54.763Z,43.40
2019-03-22T10:43:42.995Z,46.43
2019-03-22T10:46:31.267Z,45.13
2019-03-22T10:49:19.437Z,46.17
2019-03-22T10:52:07.679Z,42.67
2019-03-22T10:54:55.901Z,44.53
2019-03-22T10:57:44.068Z,40.67
2019-03-22T11:03:27.693Z,43.50
2019-03-22T11:06:25.495Z,42.83
2019-03-22T11:09:07.145Z,44.53
2019-03-22T11:11:55.328Z,44.20
2019-03-22T11:14:45.642Z,41.47
2019-03-22T11:17:33.468Z,43.20
2019-03-22T11:20:21.676Z,43.97
2019-03-22T11:23:09.848Z,46.13
2019-03-22T11:26:04.061Z,44.40
2019-03-22T11:28:47.987Z,43.50
2019-03-22T11:31:40.102Z,42.50
2019-03-22T11:34:18.509Z,40.23
2019-03-22T11:36:59.431Z,41.63
2019-03-22T11:39:40.045Z,39.70
2019-03-22T11:42:20.735Z,38.83
2019-03-22T11:45:01.499Z,40.27
2019-03-22T11:50:24.392Z,37.90
2019-03-22T11:53:05.198Z,36.47
2019-03-22T11:55:46.139Z,35.63
2019-03-22T11:58:26.842Z,37.70
2019-03-22T12:01:07.665Z,34.53
2019-03-22T12:03:48.464Z,36.50
2019-03-22T12:06:29.139Z,35.70
2019-03-22T12:09:09.944Z,35.03
2019-03-22T12:11:50.401Z,35.23
2019-03-22T12:14:31.256Z,36.03
2019-03-22T12:17:12.048Z,35.70
2019-03-22T12:19:52.828Z,37.40
2019-03-22T12:22:33.656Z,35.33
2019-03-22T12:25:14.324Z,36.50
2019-03-22T12:27:55.143Z,35.10
2019-03-22T12:30:35.888Z,37.50
2019-03-22T12:33:16.806Z,33.93
2019-03-22T12:35:57.777Z,34.10
2019-03-22T12:38:39.024Z,34.50
2019-03-22T12:41:19.419Z,32.37
2019-03-22T12:44:00.029Z,34.17
2019-03-22T12:46:40.403Z,32.13
2019-03-22T12:49:20.866Z,33.83
2019-03-22T12:52:01.418Z,33.33
2019-03-22T12:54:41.993Z,32.57
2019-03-22T12:57:22.620Z,32.80
2019-03-22T13:00:03.660Z,31.83
2019-03-22T13:02:44.192Z,31.53
2019-03-22T13:05:24.712Z,31.83
2019-03-22T13:08:05.333Z,31.40
2019-03-22T13:10:45.683Z,32.70
2019-03-22T13:13:26.140Z,32.10
2019-03-22T13:16:06.621Z,30.03
2019-03-22T13:21:29.529Z,30.87
2019-03-22T13:24:10.349Z,30.90
2019-03-22T13:26:50.944Z,30.77
2019-03-22T13:29:31.735Z,30.70
2019-03-22T13:32:12.332Z,30.50
2019-03-22T13:34:53.088Z,30.50
2019-03-22T13:37:33.978Z,30.40
2019-03-22T13:40:14.620Z,33.00
2019-03-22T13:42:55.680Z,30.00
2019-03-22T13:45:36.464Z,30.50
2019-03-22T13:48:17.171Z,34.30
2019-03-22T13:50:57.932Z,31.70
2019-03-22T13:53:38.658Z,30.53
2019-03-22T13:56:19.549Z,31.70
2019-03-22T13:59:00.392Z,30.80
2019-03-22T14:01:40.854Z,29.13
2019-03-22T14:04:21.768Z,30.47
2019-03-22T14:07:02.651Z,29.90
2019-03-22T14:09:43.537Z,29.07
2019-03-22T14:12:24.201Z,27.83
2019-03-22T14:15:04.975Z,27.80
2019-03-22T14:17:45.850Z,27.43
2019-03-22T14:20:26.347Z,29.67
2019-03-22T14:23:07.133Z,30.03
2019-03-22T14:25:47.840Z,32.07
2019-03-22T14:28:28.706Z,31.73
2019-03-22T14:31:09.463Z,30.27
2019-03-22T14:33:50.239Z,30.97
2019-03-22T14:36:31.009Z,32.00
2019-03-22T14:39:11.797Z,29.70
2019-03-22T14:41:52.468Z,31.27
2019-03-22T14:44:33.212Z,28.93
2019-03-22T14:47:13.991Z,29.00
2019-03-22T14:49:54.741Z,27.47
2019-03-22T14:52:37.797Z,27.50
2019-03-22T14:55:18.360Z,29.00
2019-03-22T14:57:58.984Z,28.23
2019-03-22T15:00:39.643Z,29.40
2019-03-22T15:03:27.383Z,30.13
2019-03-22T15:06:08.508Z,30.33
2019-03-22T15:08:49.101Z,30.77
2019-03-22T15:11:29.900Z,30.57
2019-03-22T15:14:29.257Z,29.70
2019-03-22T15:17:28.901Z,30.40
2019-03-22T15:20:28.348Z,31.07
2019-03-22T15:23:27.974Z,30.87
2019-03-22T15:26:27.684Z,30.57
2019-03-22T15:29:25.677Z,31.40
2019-03-22T15:32:18.041Z,31.37
2019-03-22T15:35:18.381Z,32.00
2019-03-22T15:38:17.860Z,31.27
2019-03-22T15:40:58.396Z,32.10
2019-03-22T15:43:39.192Z,31.47
2019-03-22T15:46:19.837Z,31.50
2019-03-22T15:49:00.472Z,30.33
2019-03-22T15:51:41.265Z,31.37
2019-03-22T15:54:21.960Z,30.53
2019-03-22T15:57:02.910Z,31.47
2019-03-22T15:59:43.481Z,31.30
2019-03-22T16:02:24.240Z,31.50
2019-03-22T16:05:05.136Z,32.10
2019-03-22T16:07:45.965Z,30.90
2019-03-22T16:10:26.756Z,30.97
2019-03-22T16:13:07.412Z,31.53
2019-03-22T16:15:48.545Z,31.30
2019-03-22T16:18:29.089Z,32.90
2019-03-22T16:21:09.809Z,34.90
2019-03-22T16:23:50.594Z,34.60
2019-03-22T16:26:31.244Z,34.83
2019-03-22T16:29:11.741Z,33.80
2019-03-22T16:31:52.299Z,34.67
2019-03-22T16:34:32.670Z,34.43
2019-03-22T16:37:13.123Z,35.97
2019-03-22T16:39:53.685Z,37.00
2019-03-22T16:42:34.337Z,37.70
2019-03-22T16:45:14.875Z,37.67
2019-03-22T16:47:55.234Z,39.27
2019-03-22T16:50:35.836Z,40.23
2019-03-22T16:53:16.577Z,37.30
2019-03-22T16:55:57.161Z,38.17
2019-03-22T16:58:37.754Z,39.13
2019-03-22T17:01:18.304Z,40.70
2019-03-22T17:04:04.339Z,40.83
2019-03-22T17:06:41.836Z,40.00
2019-03-22T17:09:22.684Z,40.70
2019-03-22T17:12:03.428Z,44.10
2019-03-22T17:14:44.561Z,43.20
2019-03-22T17:17:25.279Z,43.93
2019-03-22T17:20:05.792Z,44.30
2019-03-22T17:22:46.356Z,43.73
2019-03-22T17:25:27.211Z,45.50
2019-03-22T17:28:07.852Z,47.33
2019-03-22T17:30:48.617Z,47.63
2019-03-22T17:33:29.249Z,47.50
2019-03-22T17:36:09.969Z,47.30
2019-03-22T17:38:50.568Z,48.73
2019-03-22T17:41:31.183Z,50.50
2019-03-22T17:44:12.108Z,49.60
2019-03-22T17:46:53.256Z,48.50
2019-03-22T17:49:33.796Z,49.60
2019-03-22T17:52:14.532Z,50.13
2019-03-22T17:54:55.329Z,52.20
2019-03-22T17:57:35.826Z,49.50
2019-03-22T18:00:16.772Z,50.23
2019-03-22T18:02:57.100Z,50.70
2019-03-22T18:05:37.779Z,51.57
2019-03-22T18:08:18.205Z,51.40
2019-03-22T18:10:58.787Z,52.23
2019-03-22T18:13:39.332Z,50.47
2019-03-22T18:16:20.095Z,54.33
2019-03-22T18:19:00.820Z,53.07
2019-03-22T18:21:41.718Z,51.37
2019-03-22T18:24:22.421Z,52.80
2019-03-22T18:27:03.160Z,52.10
2019-03-22T18:29:43.892Z,52.27
2019-03-22T18:32:24.347Z,54.33
2019-03-22T18:35:04.919Z,54.00
2019-03-22T18:37:45.529Z,53.30
2019-03-22T18:40:26.333Z,56.57
2019-03-22T18:43:07.076Z,54.90
2019-03-22T18:45:47.689Z,55.10
2019-03-22T18:48:28.452Z,55.50
2019-03-22T18:51:08.938Z,56.63
2019-03-22T18:53:49.650Z,55.77
2019-03-22T18:56:30.411Z,55.17
2019-03-22T18:59:11.336Z,53.80
2019-03-22T19:01:52.132Z,54.53
2019-03-22T19:04:32.668Z,55.50
2019-03-22T19:07:13.463Z,56.37
2019-03-22T19:09:54.140Z,57.67
2019-03-22T19:12:34.628Z,55.77
2019-03-22T19:15:15.315Z,55.40
2019-03-22T19:17:55.976Z,53.60
2019-03-22T19:20:36.620Z,55.50
2019-03-22T19:23:17.597Z,53.77
2019-03-22T19:25:58.287Z,55.90
2019-03-22T19:28:38.688Z,54.43
2019-03-22T19:31:19.379Z,54.80
2019-03-22T19:34:00.069Z,53.87
2019-03-22T19:36:40.829Z,52.80
2019-03-22T19:39:21.540Z,53.63
2019-03-22T19:42:02.308Z,55.40
2019-03-22T19:44:43.048Z,51.90
2019-03-22T19:47:23.572Z,51.77
2019-03-22T19:50:04.192Z,52.03
2019-03-22T19:52:44.996Z,54.73
2019-03-22T19:55:25.427Z,53.33
2019-03-22T19:58:06.063Z,53.87
2019-03-22T20:00:46.708Z,53.73
2019-03-22T20:03:27.680Z,53.97
2019-03-22T20:06:08.634Z,54.20
2019-03-22T20:08:49.504Z,56.23
2019-03-22T20:11:30.418Z,54.60
2019-03-22T20:14:10.998Z,55.90
2019-03-22T20:16:51.579Z,57.03
2019-03-22T20:19:32.288Z,60.80
2019-03-22T20:22:12.836Z,55.07
2019-03-22T20:24:53.635Z,55.53
2019-03-22T20:27:34.420Z,55.80
2019-03-22T20:30:15.200Z,54.90
2019-03-22T20:32:56.084Z,57.10
2019-03-22T20:35:36.976Z,56.63
2019-03-22T20:38:17.400Z,59.30
2019-03-22T20:40:58.188Z,59.40
2019-03-22T20:43:38.940Z,56.63
2019-03-22T20:46:19.515Z,57.20
2019-03-22T20:49:00.188Z,59.43
2019-03-22T20:51:41.011Z,62.73
2019-03-22T20:54:21.524Z,59.20
2019-03-22T20:57:02.157Z,60.33
2019-03-22T20:59:42.964Z,58.47
2019-03-22T21:02:23.592Z,58.10
2019-03-22T21:05:04.399Z,56.70
2019-03-22T21:07:44.957Z,56.43
2019-03-22T21:10:25.554Z,57.30
2019-03-22T21:13:06.304Z,58.60
2019-03-22T21:15:46.943Z,61.40
2019-03-22T21:18:27.574Z,59.30
2019-03-22T21:21:08.309Z,55.43
2019-03-22T21:23:48.762Z,56.17
2019-03-22T21:26:19.376Z,59.30
2019-03-22T21:28:48.535Z,59.83
2019-03-22T21:31:18.144Z,57.60
2019-03-22T21:33:47.307Z,56.90
2019-03-22T21:36:16.506Z,49.73
2019-03-22T21:38:45.664Z,49.50
2019-03-22T21:41:14.868Z,52.07
2019-03-22T21:43:44.063Z,51.47
2019-03-22T21:46:13.608Z,56.57
2019-03-22T21:48:42.869Z,54.20
2019-03-22T21:51:12.094Z,52.70
2019-03-22T21:53:41.285Z,50.90
2019-03-22T21:56:10.464Z,49.20
2019-03-22T21:58:39.635Z,50.40
2019-03-22T22:01:08.799Z,48.67
2019-03-22T22:03:37.968Z,47.20
2019-03-22T22:06:07.203Z,47.50
2019-03-22T22:08:36.379Z,47.20
2019-03-22T22:11:05.555Z,47.23
2019-03-22T22:13:34.766Z,46.10
2019-03-22T22:16:03.936Z,44.23
2019-03-22T22:18:33.083Z,43.90
2019-03-22T22:21:02.276Z,45.90
2019-03-22T22:23:31.572Z,42.17
2019-03-22T22:26:00.814Z,42.47
2019-03-22T22:28:29.979Z,41.70
2019-03-22T22:30:59.178Z,42.50
2019-03-22T22:33:28.333Z,41.03
2019-03-22T22:35:58.862Z,41.80
2019-03-22T22:38:28.356Z,43.30
2019-03-22T22:40:57.541Z,39.83
2019-03-22T22:43:26.731Z,41.50
2019-03-22T22:45:55.911Z,40.50
2019-03-22T22:48:25.073Z,40.43
2019-03-22T22:50:54.264Z,39.80
2019-03-22T22:53:23.535Z,40.00
2019-03-22T22:55:52.719Z,41.73
2019-03-22T22:58:21.881Z,41.13
2019-03-22T23:00:51.141Z,41.27
2019-03-22T23:03:20.385Z,41.80
2019-03-22T23:05:49.547Z,40.77
2019-03-22T23:08:18.732Z,42.20
2019-03-22T23:10:47.983Z,40.70
2019-03-22T23:13:17.428Z,40.57
2019-03-22T23:15:46.669Z,41.00
2019-03-22T23:18:15.843Z,40.50
2019-03-22T23:20:45.127Z,40.67
2019-03-22T23:23:14.332Z,42.00
2019-03-22T23:25:43.505Z,42.50
2019-03-22T23:28:12.761Z,42.07
2019-03-22T23:30:42.192Z,41.03
2019-03-22T23:33:11.419Z,43.43
2019-03-22T23:35:41.007Z,50.03
2019-03-22T23:38:10.197Z,45.27
2019-03-22T23:40:39.364Z,43.77
2019-03-22T23:43:08.572Z,42.20
2019-03-22T23:45:37.735Z,41.80
2019-03-22T23:48:06.908Z,42.00
2019-03-22T23:50:36.067Z,42.63
2019-03-22T23:53:05.323Z,44.23
2019-03-22T23:55:34.519Z,44.43
2019-03-22T23:58:03.709Z,40.50
